sensor_id;sensor_type;location;lat;lon;timestamp;temperature;humidity
47540;DHT22;33280;52.152;21.052;2022-10-31T00:03:50;10.20;99.90
47540;DHT22;33280;52.152;21.052;2022-10-31T00:06:17;10.20;99.90
47540;DHT22;33280;52.152;21.052;2022-10-31T00:08:46;10.20;99.90
47540;DHT22;33280;52.152;21.052;2022-10-31T00:11:13;10.10;99.90
47540;DHT22;33280;52.152;21.052;2022-10-31T00:13:40;10.10;99.90
47540;DHT22;33280;52.152;21.052;2022-10-31T00:16:14;10.10;99.90
47540;DHT22;33280;52.152;21.052;2022-10-31T00:18:41;10.00;99.90
47540;DHT22;33280;52.152;21.052;2022-10-31T00:21:08;10.10;99.90
47540;DHT22;33280;52.152;21.052;2022-10-31T00:23:38;10.10;99.90
47540;DHT22;33280;52.152;21.052;2022-10-31T00:26:05;10.00;99.90
47540;DHT22;33280;52.152;21.052;2022-10-31T00:28:35;10.10;99.90
47540;DHT22;33280;52.152;21.052;2022-10-31T00:31:07;9.90;99.90
47540;DHT22;33280;52.152;21.052;2022-10-31T00:33:35;10.00;99.90
47540;DHT22;33280;52.152;21.052;2022-10-31T00:36:04;9.80;99.90
47540;DHT22;33280;52.152;21.052;2022-10-31T00:38:31;9.80;99.90
47540;DHT22;33280;52.152;21.052;2022-10-31T00:40:58;9.90;99.90
47540;DHT22;33280;52.152;21.052;2022-10-31T00:43:25;9.90;99.90
47540;DHT22;33280;52.152;21.052;2022-10-31T00:45:52;9.90;99.90
47540;DHT22;33280;52.152;21.052;2022-10-31T00:48:19;10.00;99.90
47540;DHT22;33280;52.152;21.052;2022-10-31T00:50:55;9.80;99.90
47540;DHT22;33280;52.152;21.052;2022-10-31T00:53:22;9.80;99.90
47540;DHT22;33280;52.152;21.052;2022-10-31T00:55:49;9.70;99.90
47540;DHT22;33280;52.152;21.052;2022-10-31T00:58:16;9.70;99.90
47540;DHT22;33280;52.152;21.052;2022-10-31T01:00:46;9.60;99.90
47540;DHT22;33280;52.152;21.052;2022-10-31T01:03:17;9.60;99.90
47540;DHT22;33280;52.152;21.052;2022-10-31T01:05:44;9.50;99.90
47540;DHT22;33280;52.152;21.052;2022-10-31T01:08:11;9.70;99.90
47540;DHT22;33280;52.152;21.052;2022-10-31T01:10:37;9.60;99.90
47540;DHT22;33280;52.152;21.052;2022-10-31T01:13:04;9.60;99.90
47540;DHT22;33280;52.152;21.052;2022-10-31T01:15:31;9.60;99.90
47540;DHT22;33280;52.152;21.052;2022-10-31T01:17:58;9.50;99.90
47540;DHT22;33280;52.152;21.052;2022-10-31T01:20:33;9.50;99.90
47540;DHT22;33280;52.152;21.052;2022-10-31T01:22:59;9.50;99.90
47540;DHT22;33280;52.152;21.052;2022-10-31T01:25:29;9.40;99.90
47540;DHT22;33280;52.152;21.052;2022-10-31T01:27:56;9.30;99.90
47540;DHT22;33280;52.152;21.052;2022-10-31T01:30:26;9.30;99.90
47540;DHT22;33280;52.152;21.052;2022-10-31T01:32:53;9.30;99.90
47540;DHT22;33280;52.152;21.052;2022-10-31T01:35:28;9.30;99.90
47540;DHT22;33280;52.152;21.052;2022-10-31T01:37:55;9.30;99.90
47540;DHT22;33280;52.152;21.052;2022-10-31T01:40:22;9.30;99.90
47540;DHT22;33280;52.152;21.052;2022-10-31T01:42:48;9.30;99.90
47540;DHT22;33280;52.152;21.052;2022-10-31T01:45:17;9.30;99.90
47540;DHT22;33280;52.152;21.052;2022-10-31T01:47:47;9.30;99.90
47540;DHT22;33280;52.152;21.052;2022-10-31T01:50:31;9.30;99.90
47540;DHT22;33280;52.152;21.052;2022-10-31T01:52:59;9.40;99.90
47540;DHT22;33280;52.152;21.052;2022-10-31T01:55:30;9.40;99.90
47540;DHT22;33280;52.152;21.052;2022-10-31T01:58:04;9.40;99.90
47540;DHT22;33280;52.152;21.052;2022-10-31T02:00:33;9.40;99.90
47540;DHT22;33280;52.152;21.052;2022-10-31T02:03:00;9.30;99.90
47540;DHT22;33280;52.152;21.052;2022-10-31T02:05:29;9.30;99.90
47540;DHT22;33280;52.152;21.052;2022-10-31T02:08:01;9.30;99.90
47540;DHT22;33280;52.152;21.052;2022-10-31T02:10:31;9.30;99.90
47540;DHT22;33280;52.152;21.052;2022-10-31T02:13:02;9.30;99.90
47540;DHT22;33280;52.152;21.052;2022-10-31T02:15:31;9.20;99.90
47540;DHT22;33280;52.152;21.052;2022-10-31T02:17:58;9.20;99.90
47540;DHT22;33280;52.152;21.052;2022-10-31T02:20:37;9.10;99.90
47540;DHT22;33280;52.152;21.052;2022-10-31T02:29:20;9.00;99.90
47540;DHT22;33280;52.152;21.052;2022-10-31T02:34:36;8.90;99.90
47540;DHT22;33280;52.152;21.052;2022-10-31T02:45:13;8.80;99.90
47540;DHT22;33280;52.152;21.052;2022-10-31T02:47:41;8.80;99.90
47540;DHT22;33280;52.152;21.052;2022-10-31T02:50:14;8.80;99.90
47540;DHT22;33280;52.152;21.052;2022-10-31T02:52:42;8.80;99.90
47540;DHT22;33280;52.152;21.052;2022-10-31T02:58:17;8.70;99.90
47540;DHT22;33280;52.152;21.052;2022-10-31T03:06:20;8.80;99.90
47540;DHT22;33280;52.152;21.052;2022-10-31T03:09:01;8.70;99.90
47540;DHT22;33280;52.152;21.052;2022-10-31T03:11:34;8.70;99.90
47540;DHT22;33280;52.152;21.052;2022-10-31T03:14:10;8.70;99.90
47540;DHT22;33280;52.152;21.052;2022-10-31T03:17:05;8.60;99.90
47540;DHT22;33280;52.152;21.052;2022-10-31T03:19:39;8.60;99.90
47540;DHT22;33280;52.152;21.052;2022-10-31T03:22:36;8.60;99.90
47540;DHT22;33280;52.152;21.052;2022-10-31T03:25:05;8.60;99.90
47540;DHT22;33280;52.152;21.052;2022-10-31T03:27:35;8.50;99.90
47540;DHT22;33280;52.152;21.052;2022-10-31T03:30:04;8.40;99.90
47540;DHT22;33280;52.152;21.052;2022-10-31T03:32:36;8.40;99.90
47540;DHT22;33280;52.152;21.052;2022-10-31T03:35:06;8.40;99.90
47540;DHT22;33280;52.152;21.052;2022-10-31T03:37:35;8.30;99.90
47540;DHT22;33280;52.152;21.052;2022-10-31T03:40:05;8.30;99.90
47540;DHT22;33280;52.152;21.052;2022-10-31T03:42:36;8.30;99.90
47540;DHT22;33280;52.152;21.052;2022-10-31T03:47:37;8.30;99.90
47540;DHT22;33280;52.152;21.052;2022-10-31T03:50:07;8.30;99.90
47540;DHT22;33280;52.152;21.052;2022-10-31T03:52:55;8.30;99.90
47540;DHT22;33280;52.152;21.052;2022-10-31T03:55:32;8.30;99.90
47540;DHT22;33280;52.152;21.052;2022-10-31T03:58:06;8.20;99.90
47540;DHT22;33280;52.152;21.052;2022-10-31T04:00:39;8.20;99.90
47540;DHT22;33280;52.152;21.052;2022-10-31T04:03:10;8.20;99.90
47540;DHT22;33280;52.152;21.052;2022-10-31T04:05:38;8.30;99.90
47540;DHT22;33280;52.152;21.052;2022-10-31T04:08:10;8.30;99.90
47540;DHT22;33280;52.152;21.052;2022-10-31T04:10:40;8.30;99.90
47540;DHT22;33280;52.152;21.052;2022-10-31T04:13:11;8.40;99.90
47540;DHT22;33280;52.152;21.052;2022-10-31T04:15:41;8.40;99.90
47540;DHT22;33280;52.152;21.052;2022-10-31T04:18:09;8.40;99.90
47540;DHT22;33280;52.152;21.052;2022-10-31T04:20:38;8.40;99.90
47540;DHT22;33280;52.152;21.052;2022-10-31T04:23:17;8.40;99.90
47540;DHT22;33280;52.152;21.052;2022-10-31T04:25:58;8.20;99.90
47540;DHT22;33280;52.152;21.052;2022-10-31T04:32:10;8.10;99.90
47540;DHT22;33280;52.152;21.052;2022-10-31T04:34:38;8.10;99.90
47540;DHT22;33280;52.152;21.052;2022-10-31T04:37:05;8.10;99.90
47540;DHT22;33280;52.152;21.052;2022-10-31T04:39:35;8.10;99.90
47540;DHT22;33280;52.152;21.052;2022-10-31T04:42:08;8.00;99.90
47540;DHT22;33280;52.152;21.052;2022-10-31T04:44:35;8.00;99.90
47540;DHT22;33280;52.152;21.052;2022-10-31T04:47:07;8.00;99.90
47540;DHT22;33280;52.152;21.052;2022-10-31T04:49:43;8.00;99.90
47540;DHT22;33280;52.152;21.052;2022-10-31T04:52:10;7.90;99.90
47540;DHT22;33280;52.152;21.052;2022-10-31T04:54:37;7.80;99.90
47540;DHT22;33280;52.152;21.052;2022-10-31T04:57:04;7.90;99.90
47540;DHT22;33280;52.152;21.052;2022-10-31T04:59:31;7.90;99.90
47540;DHT22;33280;52.152;21.052;2022-10-31T05:01:58;8.00;99.90
47540;DHT22;33280;52.152;21.052;2022-10-31T05:04:25;8.00;99.90
47540;DHT22;33280;52.152;21.052;2022-10-31T05:06:52;7.90;99.90
47540;DHT22;33280;52.152;21.052;2022-10-31T05:09:19;7.90;99.90
47540;DHT22;33280;52.152;21.052;2022-10-31T05:11:46;7.80;99.90
47540;DHT22;33280;52.152;21.052;2022-10-31T05:14:13;7.70;99.90
47540;DHT22;33280;52.152;21.052;2022-10-31T05:16:40;7.70;99.90
47540;DHT22;33280;52.152;21.052;2022-10-31T05:19:06;7.60;99.90
47540;DHT22;33280;52.152;21.052;2022-10-31T05:21:34;7.60;99.90
47540;DHT22;33280;52.152;21.052;2022-10-31T05:24:01;7.50;99.90
47540;DHT22;33280;52.152;21.052;2022-10-31T05:26:28;7.50;99.90
47540;DHT22;33280;52.152;21.052;2022-10-31T05:31:48;7.40;99.90
47540;DHT22;33280;52.152;21.052;2022-10-31T05:34:31;7.50;99.90
47540;DHT22;33280;52.152;21.052;2022-10-31T05:37:55;7.40;99.90
47540;DHT22;33280;52.152;21.052;2022-10-31T05:41:13;7.50;99.90
47540;DHT22;33280;52.152;21.052;2022-10-31T05:43:59;7.40;99.90
47540;DHT22;33280;52.152;21.052;2022-10-31T05:46:55;7.40;99.90
47540;DHT22;33280;52.152;21.052;2022-10-31T05:49:55;7.30;99.90
47540;DHT22;33280;52.152;21.052;2022-10-31T05:52:25;7.30;99.90
47540;DHT22;33280;52.152;21.052;2022-10-31T05:54:51;7.40;99.90
47540;DHT22;33280;52.152;21.052;2022-10-31T05:57:35;7.30;99.90
47540;DHT22;33280;52.152;21.052;2022-10-31T06:00:21;7.30;99.90
47540;DHT22;33280;52.152;21.052;2022-10-31T06:03:15;7.20;99.90
47540;DHT22;33280;52.152;21.052;2022-10-31T06:05:42;7.20;99.90
47540;DHT22;33280;52.152;21.052;2022-10-31T06:08:22;7.20;99.90
47540;DHT22;33280;52.152;21.052;2022-10-31T06:10:49;7.20;99.90
47540;DHT22;33280;52.152;21.052;2022-10-31T06:13:16;7.10;99.90
47540;DHT22;33280;52.152;21.052;2022-10-31T06:15:43;7.20;99.90
47540;DHT22;33280;52.152;21.052;2022-10-31T06:18:11;7.20;99.90
47540;DHT22;33280;52.152;21.052;2022-10-31T06:20:38;7.20;99.90
47540;DHT22;33280;52.152;21.052;2022-10-31T06:23:07;7.20;99.90
47540;DHT22;33280;52.152;21.052;2022-10-31T06:25:35;7.20;99.90
47540;DHT22;33280;52.152;21.052;2022-10-31T06:28:02;7.20;99.90
47540;DHT22;33280;52.152;21.052;2022-10-31T06:30:32;7.40;99.90
47540;DHT22;33280;52.152;21.052;2022-10-31T06:33:19;7.40;99.90
47540;DHT22;33280;52.152;21.052;2022-10-31T06:35:47;7.50;99.90
47540;DHT22;33280;52.152;21.052;2022-10-31T06:39:17;7.60;99.90
47540;DHT22;33280;52.152;21.052;2022-10-31T06:41:47;7.70;99.90
47540;DHT22;33280;52.152;21.052;2022-10-31T06:44:46;7.70;99.90
47540;DHT22;33280;52.152;21.052;2022-10-31T06:47:13;7.80;99.90
47540;DHT22;33280;52.152;21.052;2022-10-31T06:49:44;7.90;99.90
47540;DHT22;33280;52.152;21.052;2022-10-31T06:52:18;7.90;99.90
47540;DHT22;33280;52.152;21.052;2022-10-31T06:54:45;8.00;99.90
47540;DHT22;33280;52.152;21.052;2022-10-31T06:57:22;8.00;99.90
47540;DHT22;33280;52.152;21.052;2022-10-31T07:00:01;8.20;99.90
47540;DHT22;33280;52.152;21.052;2022-10-31T07:02:37;8.30;99.90
47540;DHT22;33280;52.152;21.052;2022-10-31T07:05:07;8.40;99.90
47540;DHT22;33280;52.152;21.052;2022-10-31T07:07:34;8.40;99.90
47540;DHT22;33280;52.152;21.052;2022-10-31T07:10:01;8.50;99.90
47540;DHT22;33280;52.152;21.052;2022-10-31T07:12:31;8.70;99.90
47540;DHT22;33280;52.152;21.052;2022-10-31T07:15:26;8.80;99.90
47540;DHT22;33280;52.152;21.052;2022-10-31T07:17:53;8.90;99.90
47540;DHT22;33280;52.152;21.052;2022-10-31T07:20:43;8.90;99.90
47540;DHT22;33280;52.152;21.052;2022-10-31T07:23:19;9.00;99.90
47540;DHT22;33280;52.152;21.052;2022-10-31T07:25:59;9.20;99.90
47540;DHT22;33280;52.152;21.052;2022-10-31T07:28:26;9.30;99.90
47540;DHT22;33280;52.152;21.052;2022-10-31T07:31:12;9.40;99.90
47540;DHT22;33280;52.152;21.052;2022-10-31T07:33:45;9.40;99.90
47540;DHT22;33280;52.152;21.052;2022-10-31T07:36:31;9.60;99.90
47540;DHT22;33280;52.152;21.052;2022-10-31T07:39:07;9.60;99.90
47540;DHT22;33280;52.152;21.052;2022-10-31T07:41:40;9.70;99.90
47540;DHT22;33280;52.152;21.052;2022-10-31T07:44:10;9.70;99.90
47540;DHT22;33280;52.152;21.052;2022-10-31T07:50:11;9.70;99.90
47540;DHT22;33280;52.152;21.052;2022-10-31T07:53:41;9.70;99.90
47540;DHT22;33280;52.152;21.052;2022-10-31T07:57:13;9.90;99.90
47540;DHT22;33280;52.152;21.052;2022-10-31T07:59:51;9.70;99.90
47540;DHT22;33280;52.152;21.052;2022-10-31T08:02:20;9.70;99.90
47540;DHT22;33280;52.152;21.052;2022-10-31T08:04:50;9.90;99.90
47540;DHT22;33280;52.152;21.052;2022-10-31T08:07:18;10.00;99.90
47540;DHT22;33280;52.152;21.052;2022-10-31T08:09:46;10.00;99.90
47540;DHT22;33280;52.152;21.052;2022-10-31T08:12:15;10.00;99.90
47540;DHT22;33280;52.152;21.052;2022-10-31T08:14:42;10.20;99.90
47540;DHT22;33280;52.152;21.052;2022-10-31T08:17:11;10.20;99.90
47540;DHT22;33280;52.152;21.052;2022-10-31T08:19:37;10.30;99.90
47540;DHT22;33280;52.152;21.052;2022-10-31T08:22:12;10.50;99.90
47540;DHT22;33280;52.152;21.052;2022-10-31T08:24:57;10.60;99.90
47540;DHT22;33280;52.152;21.052;2022-10-31T08:27:31;10.70;99.90
47540;DHT22;33280;52.152;21.052;2022-10-31T08:29:58;10.80;99.90
47540;DHT22;33280;52.152;21.052;2022-10-31T08:32:28;11.10;99.90
47540;DHT22;33280;52.152;21.052;2022-10-31T08:34:58;11.30;99.90
47540;DHT22;33280;52.152;21.052;2022-10-31T08:37:25;11.50;99.90
47540;DHT22;33280;52.152;21.052;2022-10-31T08:39:58;11.70;99.90
47540;DHT22;33280;52.152;21.052;2022-10-31T08:42:25;11.70;99.90
47540;DHT22;33280;52.152;21.052;2022-10-31T08:44:52;11.80;99.90
47540;DHT22;33280;52.152;21.052;2022-10-31T08:47:19;11.80;99.90
47540;DHT22;33280;52.152;21.052;2022-10-31T08:49:46;11.90;99.90
47540;DHT22;33280;52.152;21.052;2022-10-31T08:52:13;12.00;99.90
47540;DHT22;33280;52.152;21.052;2022-10-31T08:54:42;12.00;99.90
47540;DHT22;33280;52.152;21.052;2022-10-31T08:57:19;12.10;99.90
47540;DHT22;33280;52.152;21.052;2022-10-31T08:59:55;12.20;99.90
47540;DHT22;33280;52.152;21.052;2022-10-31T09:02:35;12.20;99.90
47540;DHT22;33280;52.152;21.052;2022-10-31T09:05:05;12.50;99.90
47540;DHT22;33280;52.152;21.052;2022-10-31T09:07:32;13.00;99.90
47540;DHT22;33280;52.152;21.052;2022-10-31T09:09:59;13.30;99.90
47540;DHT22;33280;52.152;21.052;2022-10-31T09:12:26;13.60;99.90
47540;DHT22;33280;52.152;21.052;2022-10-31T09:14:52;13.90;99.90
47540;DHT22;33280;52.152;21.052;2022-10-31T09:17:19;14.30;99.90
47540;DHT22;33280;52.152;21.052;2022-10-31T09:19:46;14.60;99.90
47540;DHT22;33280;52.152;21.052;2022-10-31T09:22:14;14.70;99.90
47540;DHT22;33280;52.152;21.052;2022-10-31T09:24:40;14.80;99.90
47540;DHT22;33280;52.152;21.052;2022-10-31T09:27:07;15.00;99.90
47540;DHT22;33280;52.152;21.052;2022-10-31T09:29:35;15.30;99.90
47540;DHT22;33280;52.152;21.052;2022-10-31T09:32:02;15.50;99.90
47540;DHT22;33280;52.152;21.052;2022-10-31T09:34:38;15.80;99.90
47540;DHT22;33280;52.152;21.052;2022-10-31T09:37:05;16.00;99.90
47540;DHT22;33280;52.152;21.052;2022-10-31T09:39:32;16.30;99.90
47540;DHT22;33280;52.152;21.052;2022-10-31T09:47:20;16.80;99.90
47540;DHT22;33280;52.152;21.052;2022-10-31T09:50:21;17.00;99.90
47540;DHT22;33280;52.152;21.052;2022-10-31T09:56:14;17.10;99.90
47540;DHT22;33280;52.152;21.052;2022-10-31T09:58:45;17.60;99.90
47540;DHT22;33280;52.152;21.052;2022-10-31T10:04:20;18.30;99.90
47540;DHT22;33280;52.152;21.052;2022-10-31T10:06:52;18.50;99.90
47540;DHT22;33280;52.152;21.052;2022-10-31T10:09:25;18.90;99.90
47540;DHT22;33280;52.152;21.052;2022-10-31T10:20:17;19.80;99.90
47540;DHT22;33280;52.152;21.052;2022-10-31T10:25:39;20.30;99.90
47540;DHT22;33280;52.152;21.052;2022-10-31T10:28:25;20.60;99.90
47540;DHT22;33280;52.152;21.052;2022-10-31T10:31:05;20.70;99.90
47540;DHT22;33280;52.152;21.052;2022-10-31T10:36:23;20.90;99.90
47540;DHT22;33280;52.152;21.052;2022-10-31T10:41:23;21.20;99.90
47540;DHT22;33280;52.152;21.052;2022-10-31T10:43:51;21.40;99.90
47540;DHT22;33280;52.152;21.052;2022-10-31T10:46:48;21.30;99.90
47540;DHT22;33280;52.152;21.052;2022-10-31T10:49:49;21.30;99.90
47540;DHT22;33280;52.152;21.052;2022-10-31T10:58:03;21.60;99.90
47540;DHT22;33280;52.152;21.052;2022-10-31T11:00:44;21.40;99.90
47540;DHT22;33280;52.152;21.052;2022-10-31T11:03:18;21.50;99.90
47540;DHT22;33280;52.152;21.052;2022-10-31T11:05:52;21.30;99.90
47540;DHT22;33280;52.152;21.052;2022-10-31T11:08:27;21.10;99.90
47540;DHT22;33280;52.152;21.052;2022-10-31T11:11:11;21.00;99.90
47540;DHT22;33280;52.152;21.052;2022-10-31T11:13:42;21.00;99.90
47540;DHT22;33280;52.152;21.052;2022-10-31T11:16:12;20.80;99.90
47540;DHT22;33280;52.152;21.052;2022-10-31T11:18:45;20.70;99.90
47540;DHT22;33280;52.152;21.052;2022-10-31T11:21:25;20.90;99.90
47540;DHT22;33280;52.152;21.052;2022-10-31T11:27:30;21.60;99.90
47540;DHT22;33280;52.152;21.052;2022-10-31T11:38:20;23.10;99.90
47540;DHT22;33280;52.152;21.052;2022-10-31T12:15:42;26.10;99.90
47540;DHT22;33280;52.152;21.052;2022-10-31T12:18:24;26.20;99.90
47540;DHT22;33280;52.152;21.052;2022-10-31T12:21:20;26.00;99.90
47540;DHT22;33280;52.152;21.052;2022-10-31T12:56:13;24.30;99.90
47540;DHT22;33280;52.152;21.052;2022-10-31T12:59:01;23.60;99.90
47540;DHT22;33280;52.152;21.052;2022-10-31T13:01:45;23.50;99.90
47540;DHT22;33280;52.152;21.052;2022-10-31T13:04:20;23.20;99.90
47540;DHT22;33280;52.152;21.052;2022-10-31T13:06:51;22.90;99.90
47540;DHT22;33280;52.152;21.052;2022-10-31T13:09:25;22.60;99.90
47540;DHT22;33280;52.152;21.052;2022-10-31T13:11:58;22.10;99.90
47540;DHT22;33280;52.152;21.052;2022-10-31T13:14:33;22.00;99.90
47540;DHT22;33280;52.152;21.052;2022-10-31T13:17:34;21.60;99.90
47540;DHT22;33280;52.152;21.052;2022-10-31T13:20:32;21.30;99.90
47540;DHT22;33280;52.152;21.052;2022-10-31T13:23:42;21.10;99.90
47540;DHT22;33280;52.152;21.052;2022-10-31T13:26:59;21.00;99.90
47540;DHT22;33280;52.152;21.052;2022-10-31T13:35:43;19.70;99.90
47540;DHT22;33280;52.152;21.052;2022-10-31T13:38:38;19.50;99.90
47540;DHT22;33280;52.152;21.052;2022-10-31T13:54:42;19.00;99.90
47540;DHT22;33280;52.152;21.052;2022-10-31T14:00:06;18.70;99.90
47540;DHT22;33280;52.152;21.052;2022-10-31T14:02:35;18.10;99.90
47540;DHT22;33280;52.152;21.052;2022-10-31T14:07:48;17.70;99.90
47540;DHT22;33280;52.152;21.052;2022-10-31T14:12:49;17.40;99.90
47540;DHT22;33280;52.152;21.052;2022-10-31T14:15:22;17.20;99.90
47540;DHT22;33280;52.152;21.052;2022-10-31T14:18:02;17.00;99.90
47540;DHT22;33280;52.152;21.052;2022-10-31T14:20:49;16.90;99.90
47540;DHT22;33280;52.152;21.052;2022-10-31T14:23:37;16.70;99.90
47540;DHT22;33280;52.152;21.052;2022-10-31T14:31:51;15.90;99.90
47540;DHT22;33280;52.152;21.052;2022-10-31T14:34:35;15.70;99.90
47540;DHT22;33280;52.152;21.052;2022-10-31T14:51:21;14.50;99.90
47540;DHT22;33280;52.152;21.052;2022-10-31T14:53:56;14.30;99.90
47540;DHT22;33280;52.152;21.052;2022-10-31T14:56:29;14.00;99.90
47540;DHT22;33280;52.152;21.052;2022-10-31T14:59:00;13.90;99.90
47540;DHT22;33280;52.152;21.052;2022-10-31T15:01:31;13.90;99.90
47540;DHT22;33280;52.152;21.052;2022-10-31T15:04:23;13.80;99.90
47540;DHT22;33280;52.152;21.052;2022-10-31T15:09:29;13.40;99.90
47540;DHT22;33280;52.152;21.052;2022-10-31T15:12:01;13.40;99.90
47540;DHT22;33280;52.152;21.052;2022-10-31T15:14:41;13.40;99.90
47540;DHT22;33280;52.152;21.052;2022-10-31T15:17:10;13.20;99.90
47540;DHT22;33280;52.152;21.052;2022-10-31T15:19:38;13.10;99.90
47540;DHT22;33280;52.152;21.052;2022-10-31T15:22:07;13.00;99.90
47540;DHT22;33280;52.152;21.052;2022-10-31T15:24:37;13.00;99.90
47540;DHT22;33280;52.152;21.052;2022-10-31T15:27:05;13.00;99.90
47540;DHT22;33280;52.152;21.052;2022-10-31T15:29:49;12.90;99.90
47540;DHT22;33280;52.152;21.052;2022-10-31T15:32:35;12.80;99.90
47540;DHT22;33280;52.152;21.052;2022-10-31T15:35:19;12.80;99.90
47540;DHT22;33280;52.152;21.052;2022-10-31T15:37:46;12.80;99.90
47540;DHT22;33280;52.152;21.052;2022-10-31T15:40:17;12.80;99.90
47540;DHT22;33280;52.152;21.052;2022-10-31T15:42:58;12.80;99.90
47540;DHT22;33280;52.152;21.052;2022-10-31T15:45:29;12.80;99.90
47540;DHT22;33280;52.152;21.052;2022-10-31T15:48:00;12.80;99.90
47540;DHT22;33280;52.152;21.052;2022-10-31T15:54:25;12.90;99.90
47540;DHT22;33280;52.152;21.052;2022-10-31T15:56:54;12.80;99.90
47540;DHT22;33280;52.152;21.052;2022-10-31T15:59:25;12.60;99.90
47540;DHT22;33280;52.152;21.052;2022-10-31T16:02:08;12.60;99.90
47540;DHT22;33280;52.152;21.052;2022-10-31T16:07:32;12.70;99.90
47540;DHT22;33280;52.152;21.052;2022-10-31T16:10:01;12.70;99.90
47540;DHT22;33280;52.152;21.052;2022-10-31T16:12:34;12.80;99.90
47540;DHT22;33280;52.152;21.052;2022-10-31T16:15:05;12.80;99.90
47540;DHT22;33280;52.152;21.052;2022-10-31T16:17:59;12.80;99.90
47540;DHT22;33280;52.152;21.052;2022-10-31T16:23:16;12.80;99.90
47540;DHT22;33280;52.152;21.052;2022-10-31T16:25:44;12.90;99.90
47540;DHT22;33280;52.152;21.052;2022-10-31T16:28:35;12.90;99.90
47540;DHT22;33280;52.152;21.052;2022-10-31T16:31:40;12.90;99.90
47540;DHT22;33280;52.152;21.052;2022-10-31T16:34:41;13.00;99.90
47540;DHT22;33280;52.152;21.052;2022-10-31T16:37:25;13.00;99.90
47540;DHT22;33280;52.152;21.052;2022-10-31T16:40:08;13.10;99.90
47540;DHT22;33280;52.152;21.052;2022-10-31T16:43:04;13.10;99.90
47540;DHT22;33280;52.152;21.052;2022-10-31T16:46:02;13.00;99.90
47540;DHT22;33280;52.152;21.052;2022-10-31T16:49:02;13.10;99.90
47540;DHT22;33280;52.152;21.052;2022-10-31T16:51:31;13.10;99.90
47540;DHT22;33280;52.152;21.052;2022-10-31T16:54:07;13.10;99.90
47540;DHT22;33280;52.152;21.052;2022-10-31T16:57:29;13.20;99.90
47540;DHT22;33280;52.152;21.052;2022-10-31T17:00:32;13.20;99.90
47540;DHT22;33280;52.152;21.052;2022-10-31T17:02:59;13.20;99.90
47540;DHT22;33280;52.152;21.052;2022-10-31T17:05:26;13.20;99.90
47540;DHT22;33280;52.152;21.052;2022-10-31T17:07:56;13.20;99.90
47540;DHT22;33280;52.152;21.052;2022-10-31T17:10:25;13.20;99.90
47540;DHT22;33280;52.152;21.052;2022-10-31T17:12:53;13.20;99.90
47540;DHT22;33280;52.152;21.052;2022-10-31T17:15:38;13.10;99.90
47540;DHT22;33280;52.152;21.052;2022-10-31T17:18:12;13.20;99.90
47540;DHT22;33280;52.152;21.052;2022-10-31T17:20:40;13.10;99.90
47540;DHT22;33280;52.152;21.052;2022-10-31T17:23:09;13.10;99.90
47540;DHT22;33280;52.152;21.052;2022-10-31T17:25:37;13.00;99.90
47540;DHT22;33280;52.152;21.052;2022-10-31T17:28:04;13.00;99.90
47540;DHT22;33280;52.152;21.052;2022-10-31T17:30:32;13.10;99.90
47540;DHT22;33280;52.152;21.052;2022-10-31T17:33:00;13.00;99.90
47540;DHT22;33280;52.152;21.052;2022-10-31T17:35:27;13.00;99.90
47540;DHT22;33280;52.152;21.052;2022-10-31T17:37:54;13.00;99.90
47540;DHT22;33280;52.152;21.052;2022-10-31T17:40:24;12.90;99.90
47540;DHT22;33280;52.152;21.052;2022-10-31T17:42:54;13.00;99.90
47540;DHT22;33280;52.152;21.052;2022-10-31T17:45:25;12.90;99.90
47540;DHT22;33280;52.152;21.052;2022-10-31T17:47:53;12.90;99.90
47540;DHT22;33280;52.152;21.052;2022-10-31T17:53:34;12.90;99.90
47540;DHT22;33280;52.152;21.052;2022-10-31T17:58:44;12.90;99.90
47540;DHT22;33280;52.152;21.052;2022-10-31T18:03:59;12.90;99.90
47540;DHT22;33280;52.152;21.052;2022-10-31T18:06:42;12.80;99.90
47540;DHT22;33280;52.152;21.052;2022-10-31T18:09:09;12.90;99.90
47540;DHT22;33280;52.152;21.052;2022-10-31T18:11:37;12.90;99.90
47540;DHT22;33280;52.152;21.052;2022-10-31T18:14:04;12.80;99.90
47540;DHT22;33280;52.152;21.052;2022-10-31T18:16:31;12.90;99.90
47540;DHT22;33280;52.152;21.052;2022-10-31T18:18:58;12.80;99.90
47540;DHT22;33280;52.152;21.052;2022-10-31T18:21:28;12.80;99.90
47540;DHT22;33280;52.152;21.052;2022-10-31T18:23:56;12.80;99.90
47540;DHT22;33280;52.152;21.052;2022-10-31T18:26:33;12.80;99.90
47540;DHT22;33280;52.152;21.052;2022-10-31T18:29:01;12.90;99.90
47540;DHT22;33280;52.152;21.052;2022-10-31T18:31:28;12.90;99.90
47540;DHT22;33280;52.152;21.052;2022-10-31T18:33:55;12.80;99.90
47540;DHT22;33280;52.152;21.052;2022-10-31T18:36:23;12.90;99.90
47540;DHT22;33280;52.152;21.052;2022-10-31T18:38:50;12.90;99.90
47540;DHT22;33280;52.152;21.052;2022-10-31T18:41:27;12.90;99.90
47540;DHT22;33280;52.152;21.052;2022-10-31T18:43:56;12.90;99.90
47540;DHT22;33280;52.152;21.052;2022-10-31T18:46:33;12.90;99.90
47540;DHT22;33280;52.152;21.052;2022-10-31T18:49:01;13.00;99.90
47540;DHT22;33280;52.152;21.052;2022-10-31T18:51:29;12.90;99.90
47540;DHT22;33280;52.152;21.052;2022-10-31T18:54:00;12.90;99.90
47540;DHT22;33280;52.152;21.052;2022-10-31T18:56:30;13.00;99.90
47540;DHT22;33280;52.152;21.052;2022-10-31T18:59:11;13.00;99.90
47540;DHT22;33280;52.152;21.052;2022-10-31T19:01:44;13.00;99.90
47540;DHT22;33280;52.152;21.052;2022-10-31T19:04:24;13.00;99.90
47540;DHT22;33280;52.152;21.052;2022-10-31T19:06:55;13.00;99.90
47540;DHT22;33280;52.152;21.052;2022-10-31T19:09:23;13.00;99.90
47540;DHT22;33280;52.152;21.052;2022-10-31T19:11:50;13.00;99.90
47540;DHT22;33280;52.152;21.052;2022-10-31T19:14:17;13.10;99.90
47540;DHT22;33280;52.152;21.052;2022-10-31T19:16:44;13.10;99.90
47540;DHT22;33280;52.152;21.052;2022-10-31T19:19:14;13.00;99.90
47540;DHT22;33280;52.152;21.052;2022-10-31T19:21:44;13.00;99.90
47540;DHT22;33280;52.152;21.052;2022-10-31T19:24:12;13.00;99.90
47540;DHT22;33280;52.152;21.052;2022-10-31T19:26:39;13.10;99.90
47540;DHT22;33280;52.152;21.052;2022-10-31T19:29:06;13.10;99.90
47540;DHT22;33280;52.152;21.052;2022-10-31T19:31:41;13.10;99.90
47540;DHT22;33280;52.152;21.052;2022-10-31T19:34:10;13.00;99.90
47540;DHT22;33280;52.152;21.052;2022-10-31T19:36:40;13.10;99.90
47540;DHT22;33280;52.152;21.052;2022-10-31T19:39:14;13.10;99.90
47540;DHT22;33280;52.152;21.052;2022-10-31T19:41:41;13.00;99.90
47540;DHT22;33280;52.152;21.052;2022-10-31T19:44:08;13.10;99.90
47540;DHT22;33280;52.152;21.052;2022-10-31T19:46:40;13.10;99.90